createdAt,value
2018-11-04T00:05:07.546Z,1.38
2018-11-04T00:11:02.522Z,1.41
2018-11-04T00:16:57.518Z,1.57
2018-11-04T00:22:52.532Z,1.77
2018-11-04T00:28:47.543Z,1.77
2018-11-04T00:34:42.617Z,1.63
2018-11-04T00:40:37.603Z,1.8
2018-11-04T00:46:32.583Z,1.47
2018-11-04T00:52:27.539Z,2.26
2018-11-04T00:58:22.575Z,1.64
2018-11-04T01:04:17.545Z,1.49
2018-11-04T01:10:12.551Z,1.83
2018-11-04T01:16:07.525Z,2
2018-11-04T01:22:02.556Z,2.09
2018-11-04T01:27:57.525Z,1.97
2018-11-04T01:33:52.532Z,1.87
2018-11-04T01:39:47.562Z,1.8
2018-11-04T01:45:42.585Z,1.74
2018-11-04T01:51:37.520Z,2.09
2018-11-04T01:57:32.565Z,1.92
2018-11-04T02:03:27.543Z,1.89
2018-11-04T02:09:22.543Z,2.36
2018-11-04T02:15:17.560Z,1.84
2018-11-04T02:21:12.531Z,2.43
2018-11-04T02:27:07.547Z,2.04
2018-11-04T02:33:02.565Z,2.54
2018-11-04T02:38:57.535Z,2.14
2018-11-04T02:44:52.572Z,2.45
2018-11-04T02:50:47.583Z,2.51
2018-11-04T02:56:42.531Z,2.27
2018-11-04T03:02:37.549Z,2.66
2018-11-04T03:08:32.540Z,2.54
2018-11-04T03:14:27.530Z,2.11
2018-11-04T03:20:22.531Z,2.59
2018-11-04T03:26:17.532Z,2.13
2018-11-04T03:32:12.550Z,2.63
2018-11-04T03:38:07.551Z,2.33
2018-11-04T03:44:02.536Z,2.2
2018-11-04T03:49:57.556Z,2.49
2018-11-04T03:55:52.543Z,2.18
2018-11-04T04:01:47.533Z,2.47
2018-11-04T04:07:42.521Z,2.27
2018-11-04T04:13:37.599Z,2.21
2018-11-04T04:19:32.544Z,2.12
2018-11-04T04:25:27.563Z,1.98
2018-11-04T04:31:22.614Z,2.5
2018-11-04T04:37:17.589Z,2.39
2018-11-04T04:43:12.541Z,2.25
2018-11-04T04:49:07.540Z,2.14
2018-11-04T04:55:02.547Z,2.22
2018-11-04T05:00:57.534Z,1.96
2018-11-04T05:06:52.617Z,2.17
2018-11-04T05:12:47.553Z,2.16
2018-11-04T05:18:42.562Z,2.07
2018-11-04T05:24:37.550Z,1.99
2018-11-04T05:30:32.549Z,1.96
2018-11-04T05:36:27.546Z,2.27
2018-11-04T05:42:22.527Z,2.3
2018-11-04T05:48:17.535Z,2.13
2018-11-04T05:54:12.597Z,2.72
2018-11-04T06:00:07.570Z,2.34
2018-11-04T06:06:02.554Z,2.45
2018-11-04T06:11:57.552Z,2.57
2018-11-04T06:17:52.546Z,2.68
2018-11-04T06:23:47.545Z,2.35
2018-11-04T06:29:42.597Z,3.22
2018-11-04T06:35:37.609Z,2.26
2018-11-04T06:41:32.568Z,2.33
2018-11-04T06:47:27.596Z,2.54
2018-11-04T06:53:22.567Z,2.98
2018-11-04T06:59:17.609Z,2.54
2018-11-04T07:05:12.568Z,2.17
2018-11-04T07:11:07.548Z,2.24
2018-11-04T07:17:02.554Z,2.59
2018-11-04T07:22:57.571Z,2.64
2018-11-04T07:28:52.564Z,2.84
2018-11-04T07:34:47.555Z,2.43
2018-11-04T07:40:42.576Z,2.78
2018-11-04T07:46:37.559Z,1.85
2018-11-04T07:52:32.561Z,3.74
2018-11-04T07:58:27.542Z,2.44
2018-11-04T08:04:22.591Z,2.05
2018-11-04T08:10:17.606Z,2.87
2018-11-04T08:16:12.603Z,2.78
2018-11-04T08:22:07.547Z,2.8
2018-11-04T08:28:02.558Z,3.08
2018-11-04T08:33:57.590Z,3.36
2018-11-04T08:39:52.715Z,3.39
2018-11-04T08:45:47.681Z,2.66
2018-11-04T08:51:42.603Z,3.05
2018-11-04T08:57:37.569Z,3.22
2018-11-04T09:03:33.189Z,2.7
2018-11-04T09:09:27.541Z,3.24
2018-11-04T09:15:22.547Z,2.98
2018-11-04T09:21:17.581Z,3.19
2018-11-04T09:27:12.564Z,3.03
2018-11-04T09:33:07.553Z,2.64
2018-11-04T09:39:02.565Z,3.62
2018-11-04T09:44:57.558Z,3.49
2018-11-04T09:50:52.565Z,3.8
2018-11-04T09:56:47.605Z,3.13
2018-11-04T10:02:42.547Z,3.6
2018-11-04T10:08:37.558Z,3.25
2018-11-04T10:14:32.544Z,4.29
2018-11-04T10:20:27.804Z,3.58
2018-11-04T10:26:22.546Z,3.81
2018-11-04T10:32:17.556Z,3.9
2018-11-04T10:38:12.613Z,5.06
2018-11-04T10:44:07.581Z,4.08
2018-11-04T10:50:02.708Z,4.04
2018-11-04T10:55:57.719Z,9.74
2018-11-04T11:01:52.573Z,4.66
2018-11-04T11:07:47.587Z,3.23
2018-11-04T11:13:42.563Z,4.3
2018-11-04T11:19:37.583Z,4.28
2018-11-04T11:25:32.559Z,4.97
2018-11-04T11:31:27.570Z,5.64
2018-11-04T11:37:22.660Z,4.6
2018-11-04T11:43:17.582Z,4.85
2018-11-04T11:49:12.557Z,4.83
2018-11-04T11:55:07.589Z,4.97
2018-11-04T12:01:02.573Z,5.86
2018-11-04T12:06:57.567Z,7.6
2018-11-04T12:12:52.556Z,10.77
2018-11-04T12:18:47.599Z,6.1
2018-11-04T12:24:42.569Z,6.24
2018-11-04T12:30:37.576Z,5.07
2018-11-04T12:36:32.567Z,5.51
2018-11-04T12:42:27.579Z,4.66
2018-11-04T12:48:22.580Z,4.58
2018-11-04T12:54:17.561Z,3.04
2018-11-04T13:00:12.604Z,2.69
2018-11-04T13:06:07.598Z,2.95
2018-11-04T13:12:02.614Z,2.64
2018-11-04T13:17:57.582Z,2.9
2018-11-04T13:23:52.577Z,2.32
2018-11-04T13:29:47.646Z,1.77
2018-11-04T13:35:42.569Z,2.57
2018-11-04T13:41:37.613Z,2.13
2018-11-04T13:47:32.616Z,2.33
2018-11-04T13:53:27.651Z,2.37
2018-11-04T13:59:22.630Z,2.45
2018-11-04T14:05:17.579Z,2.5
2018-11-04T14:11:12.605Z,2.74
2018-11-04T14:17:07.593Z,2.26
2018-11-04T14:23:02.640Z,2.6
2018-11-04T14:28:57.610Z,3.23
2018-11-04T14:34:52.595Z,3.27
2018-11-04T14:40:47.632Z,3.37
2018-11-04T14:46:42.606Z,3.24
2018-11-04T14:52:37.620Z,2.92
2018-11-04T14:58:32.635Z,2.97
2018-11-04T15:04:27.600Z,3.4
2018-11-04T15:10:22.607Z,3.69
2018-11-04T15:16:17.612Z,3.56
2018-11-04T15:22:12.599Z,4.74
2018-11-04T15:28:07.599Z,3.95
2018-11-04T15:34:02.743Z,3.58
2018-11-04T15:39:57.627Z,3.67
2018-11-04T15:45:52.644Z,4.8
2018-11-04T15:51:47.669Z,4.47
2018-11-04T15:57:42.633Z,3.79
2018-11-04T16:03:37.610Z,3.32
2018-11-04T16:09:32.666Z,3.64
2018-11-04T16:15:27.653Z,4.02
2018-11-04T16:21:22.698Z,4.7
2018-11-04T16:27:17.680Z,3.57
2018-11-04T16:33:12.694Z,3.74
2018-11-04T16:39:07.605Z,3.65
2018-11-04T16:45:02.630Z,4.55
2018-11-04T16:50:57.601Z,3.82
2018-11-04T16:56:52.614Z,4.17
2018-11-04T17:02:47.612Z,3.81
2018-11-04T17:08:42.621Z,4.32
2018-11-04T17:14:37.617Z,6.33
2018-11-04T17:20:32.602Z,4.45
2018-11-04T17:26:27.635Z,6.97
2018-11-04T17:32:22.646Z,4.3
2018-11-04T17:38:17.605Z,4.05
2018-11-04T17:44:12.717Z,3.54
2018-11-04T17:50:07.615Z,4.12
2018-11-04T17:56:02.617Z,5.92
2018-11-04T18:01:57.613Z,5.47
2018-11-04T18:07:52.619Z,5.82
2018-11-04T18:13:47.631Z,7.5
2018-11-04T18:19:42.646Z,10.28
2018-11-04T18:25:37.672Z,9.64
2018-11-04T18:31:32.676Z,8.81
2018-11-04T18:37:27.619Z,10.09
2018-11-04T18:43:22.637Z,7.96
2018-11-04T18:49:17.620Z,5.5
2018-11-04T18:55:12.622Z,5.2
2018-11-04T19:01:07.633Z,5.05
2018-11-04T19:07:02.625Z,4.31
2018-11-04T19:12:57.647Z,4.2
2018-11-04T19:18:52.758Z,5.04
2018-11-04T19:24:47.620Z,4.22
2018-11-04T19:30:42.728Z,3.52
2018-11-04T19:36:37.644Z,3.89
2018-11-04T19:42:32.797Z,4.32
2018-11-04T19:48:27.628Z,4.53
2018-11-04T19:54:22.625Z,4.28
2018-11-04T20:00:17.669Z,5.97
2018-11-04T20:06:12.796Z,7.08
2018-11-04T20:12:07.634Z,6.9
2018-11-04T20:18:02.628Z,7.31
2018-11-04T20:23:57.645Z,7.48
2018-11-04T20:35:47.698Z,4.33
2018-11-04T20:35:47.709Z,5.22
2018-11-04T20:35:47.733Z,5.22
2018-11-04T20:35:47.824Z,5.22
2018-11-04T20:35:47.824Z,5.22
2018-11-04T20:41:42.643Z,3.63
2018-11-04T20:47:37.621Z,2.57
2018-11-04T20:53:32.645Z,2.91
2018-11-04T20:59:27.616Z,2.73
2018-11-04T21:05:22.648Z,2.02
2018-11-04T21:11:17.659Z,2.19
2018-11-04T21:17:12.617Z,1.87
2018-11-04T21:23:07.612Z,1.95
2018-11-04T21:29:02.993Z,1.45
2018-11-04T21:34:57.694Z,1.44
2018-11-04T21:40:52.676Z,1.57
2018-11-04T21:46:47.659Z,1.24
2018-11-04T21:52:42.632Z,1.46
2018-11-04T21:58:37.690Z,0.95
2018-11-04T22:04:32.697Z,1.23
2018-11-04T22:10:27.706Z,1.12
2018-11-04T22:16:22.697Z,0.99
2018-11-04T22:22:17.782Z,0.92
2018-11-04T22:28:12.664Z,0.97
2018-11-04T22:34:07.641Z,0.7
2018-11-04T22:40:02.663Z,0.83
2018-11-04T22:45:57.666Z,0.68
2018-11-04T22:51:52.684Z,0.61
2018-11-04T22:57:47.657Z,0.73
2018-11-04T23:03:42.661Z,0.68
2018-11-04T23:09:37.675Z,0.9
2018-11-04T23:15:32.703Z,0.78
2018-11-04T23:21:27.684Z,1.6
2018-11-04T23:27:22.672Z,0.81
2018-11-04T23:33:17.661Z,0.96
2018-11-04T23:39:12.660Z,0.84
2018-11-04T23:45:07.671Z,0.86
2018-11-04T23:51:02.687Z,1.06
2018-11-04T23:56:57.919Z,0.96
